Time;durP1;ratioP1;P1;durP2;ratioP2;P2;SDS_P1;SDS_P2;PMS_P1;PMS_P2;Temp;Humidity;BMP_temperature;BMP_pressure;BME280_temperature;BME280_humidity;BME280_pressure;Samples;Min_cycle;Max_cycle;Signal;HPM_P1;HPM_P2
2022/03/01 00:00:40;;;;;;;41.55;21.75;;;4.20;76.50;;;;;;5012273;28;25059;-74
2022/03/01 00:03:07;;;;;;;31.45;20.80;;;4.20;76.30;;;;;;4993987;28;25078;-73
2022/03/01 00:05:33;;;;;;;36.45;21.33;;;4.20;76.60;;;;;;5011403;28;25076;-72
2022/03/01 00:07:59;;;;;;;28.98;19.83;;;4.20;76.50;;;;;;5012093;28;25158;-73
2022/03/01 00:10:25;;;;;;;34.58;20.05;;;4.20;76.00;;;;;;5013604;28;25062;-72
2022/03/01 00:12:50;;;;;;;35.53;20.60;;;4.20;76.30;;;;;;5010497;28;25069;-72
2022/03/01 00:15:16;;;;;;;31.05;20.02;;;4.20;76.80;;;;;;5012412;28;25111;-72
2022/03/01 00:17:41;;;;;;;31.35;21.23;;;4.30;76.30;;;;;;4993640;28;25095;-73
2022/03/01 00:20:07;;;;;;;29.95;19.95;;;4.30;76.30;;;;;;5012753;28;25104;-72
2022/03/01 00:22:33;;;;;;;30.98;20.75;;;4.30;76.30;;;;;;5012962;28;25097;-73
2022/03/01 00:24:59;;;;;;;30.98;19.20;;;4.40;76.40;;;;;;5012466;28;25133;-72
2022/03/01 00:27:25;;;;;;;30.33;20.20;;;4.40;76.50;;;;;;5000891;28;25078;-72
2022/03/01 00:29:50;;;;;;;36.60;21.15;;;4.40;76.50;;;;;;5014584;28;25144;-73
2022/03/01 00:32:16;;;;;;;32.65;20.90;;;4.40;76.40;;;;;;5012668;28;25066;-73
2022/03/01 00:34:42;;;;;;;34.97;20.58;;;4.40;76.40;;;;;;5011927;28;25053;-73
2022/03/01 00:37:08;;;;;;;31.95;20.00;;;4.50;76.80;;;;;;4994328;28;25061;-73
2022/03/01 00:39:33;;;;;;;32.33;21.25;;;4.50;76.50;;;;;;5012000;28;25083;-75
2022/03/01 00:41:59;;;;;;;33.55;21.55;;;4.50;75.90;;;;;;5010585;28;25132;-72
2022/03/01 00:44:25;;;;;;;28.73;20.23;;;4.50;76.50;;;;;;5003190;28;25133;-72
2022/03/01 00:46:50;;;;;;;33.75;20.65;;;4.50;76.40;;;;;;5012039;28;25076;-73
2022/03/01 00:49:16;;;;;;;35.10;22.17;;;4.40;76.50;;;;;;5011563;28;25159;-73
2022/03/01 00:51:42;;;;;;;31.17;21.50;;;4.40;76.50;;;;;;5011351;28;25068;-72
2022/03/01 00:54:07;;;;;;;32.58;21.33;;;4.30;76.90;;;;;;5011849;28;25102;-72
2022/03/01 00:56:34;;;;;;;33.65;21.50;;;4.20;77.70;;;;;;5011785;28;25087;-74
2022/03/01 00:59:00;;;;;;;32.08;20.85;;;4.30;78.40;;;;;;5011766;28;25145;-71
2022/03/01 01:01:26;;;;;;;34.10;21.13;;;4.30;78.40;;;;;;5010808;28;25087;-72
2022/03/01 01:03:52;;;;;;;35.95;21.25;;;4.40;78.20;;;;;;4986268;28;25175;-73
2022/03/01 01:06:17;;;;;;;29.98;20.33;;;4.40;78.10;;;;;;5009180;28;25128;-73
2022/03/01 01:08:43;;;;;;;31.55;20.92;;;4.50;77.80;;;;;;5013338;28;25064;-73
2022/03/01 01:11:08;;;;;;;35.42;21.23;;;4.50;77.60;;;;;;5014108;28;25098;-73
2022/03/01 01:13:34;;;;;;;32.55;20.60;;;4.50;77.50;;;;;;5012015;28;25083;-73
2022/03/01 01:16:00;;;;;;;33.20;21.15;;;4.50;77.20;;;;;;5012103;28;25064;-73
2022/03/01 01:18:26;;;;;;;30.00;20.95;;;4.50;77.30;;;;;;5009884;28;25072;-73
2022/03/01 01:20:52;;;;;;;33.47;21.27;;;4.40;77.60;;;;;;5007865;28;25067;-74
2022/03/01 01:23:18;;;;;;;31.90;21.00;;;4.50;77.30;;;;;;4993449;28;25055;-75
2022/03/01 01:25:43;;;;;;;32.38;20.80;;;4.40;76.90;;;;;;5010608;28;25054;-73
2022/03/01 01:28:09;;;;;;;30.38;20.98;;;4.30;77.40;;;;;;5010969;28;25146;-73
2022/03/01 01:30:35;;;;;;;35.50;21.02;;;4.30;77.80;;;;;;5010524;28;25095;-74
2022/03/01 01:33:01;;;;;;;32.10;20.90;;;4.30;78.00;;;;;;5012216;28;25076;-73
2022/03/01 01:35:29;;;;;;;30.10;21.05;;;4.40;77.50;;;;;;5010146;28;25049;-73
2022/03/01 01:37:56;;;;;;;36.42;21.63;;;4.30;77.00;;;;;;4993268;28;25134;-73
2022/03/01 01:40:24;;;;;;;29.60;19.63;;;4.30;77.10;;;;;;4972834;28;25086;-74
2022/03/01 01:42:51;;;;;;;34.47;20.52;;;4.30;76.80;;;;;;5006539;28;25063;-72
2022/03/01 01:45:17;;;;;;;30.98;20.38;;;4.30;76.30;;;;;;4994932;28;25047;-74
2022/03/01 01:47:43;;;;;;;31.98;21.00;;;4.40;76.40;;;;;;5009247;28;25051;-74
2022/03/01 01:50:09;;;;;;;36.17;22.13;;;4.40;76.10;;;;;;5011765;28;25090;-72
2022/03/01 01:52:35;;;;;;;34.35;21.33;;;4.40;76.00;;;;;;5012706;28;25054;-72
2022/03/01 01:55:01;;;;;;;35.08;20.77;;;4.40;76.10;;;;;;5013529;28;25052;-73
2022/03/01 01:57:26;;;;;;;30.20;19.38;;;4.40;76.00;;;;;;5011050;28;25055;-72
2022/03/01 01:59:54;;;;;;;28.33;20.02;;;4.40;75.60;;;;;;5011285;28;25049;-73
2022/03/01 02:02:23;;;;;;;34.13;21.10;;;4.40;75.50;;;;;;5011442;28;25061;-73
2022/03/01 02:04:49;;;;;;;33.65;19.55;;;4.30;75.70;;;;;;5005071;28;25124;-73
2022/03/01 02:07:15;;;;;;;33.47;20.05;;;4.40;76.00;;;;;;4993457;28;25053;-74
2022/03/01 02:09:41;;;;;;;30.73;19.75;;;4.40;75.30;;;;;;5010620;28;25066;-73
2022/03/01 02:12:08;;;;;;;30.73;20.08;;;4.30;75.40;;;;;;4991543;28;25050;-74
2022/03/01 02:14:35;;;;;;;31.27;19.30;;;4.20;75.80;;;;;;5007009;28;25067;-73
2022/03/01 02:17:03;;;;;;;32.20;19.40;;;4.30;76.00;;;;;;5010960;28;25061;-73
2022/03/01 02:19:30;;;;;;;29.35;19.23;;;4.20;75.60;;;;;;4992674;28;25067;-73
2022/03/01 02:21:57;;;;;;;38.22;19.75;;;4.20;75.40;;;;;;5008091;28;25052;-73
2022/03/01 02:24:25;;;;;;;27.05;17.95;;;4.30;74.90;;;;;;5010933;28;24808;-73
2022/03/01 02:27:00;;;;;;;30.65;17.45;;;4.30;74.10;;;;;;5011698;28;25063;-73
2022/03/01 02:29:26;;;;;;;26.33;17.13;;;4.30;73.50;;;;;;5011753;28;25117;-72
2022/03/01 02:31:54;;;;;;;29.85;17.25;;;4.40;73.00;;;;;;5011003;28;25065;-72
2022/03/01 02:34:19;;;;;;;30.23;17.58;;;4.40;72.80;;;;;;5010775;28;25058;-72
2022/03/01 02:36:45;;;;;;;29.23;17.65;;;4.40;72.30;;;;;;5012271;28;25079;-73
2022/03/01 02:39:12;;;;;;;25.58;18.20;;;4.40;72.50;;;;;;5011791;28;25065;-73
2022/03/01 02:41:39;;;;;;;27.63;18.17;;;4.40;72.50;;;;;;5011387;28;25141;-72
2022/03/01 02:44:05;;;;;;;29.42;17.83;;;4.40;72.50;;;;;;5010614;28;25117;-74
2022/03/01 02:46:31;;;;;;;27.05;17.05;;;4.40;72.00;;;;;;4991776;28;25058;-72
2022/03/01 02:48:57;;;;;;;24.77;16.35;;;4.40;71.80;;;;;;4991517;28;25107;-74
2022/03/01 02:51:22;;;;;;;26.33;16.55;;;4.50;72.00;;;;;;5009058;28;25098;-72
2022/03/01 02:53:48;;;;;;;26.95;16.70;;;4.50;71.30;;;;;;5008919;28;25068;-73
2022/03/01 02:56:13;;;;;;;28.15;17.38;;;4.50;71.20;;;;;;5003124;28;25082;-72
2022/03/01 02:58:40;;;;;;;27.88;17.25;;;4.40;71.90;;;;;;5006687;28;24934;-74
2022/03/01 03:01:06;;;;;;;26.95;17.17;;;4.40;72.00;;;;;;4996279;28;25070;-73
2022/03/01 03:03:31;;;;;;;26.63;16.25;;;4.40;71.80;;;;;;4996445;28;25062;-73
2022/03/01 03:05:57;;;;;;;23.63;16.52;;;4.40;71.90;;;;;;5006801;28;25119;-73
2022/03/01 03:08:22;;;;;;;27.65;17.30;;;4.40;72.40;;;;;;5009044;28;25077;-71
2022/03/01 03:10:48;;;;;;;25.02;17.40;;;4.40;72.20;;;;;;4991580;28;25056;-73
2022/03/01 03:13:14;;;;;;;24.30;17.08;;;4.40;72.00;;;;;;5006193;28;25068;-73
2022/03/01 03:15:39;;;;;;;27.67;16.65;;;4.30;72.20;;;;;;5010755;28;25095;-74
2022/03/01 03:18:05;;;;;;;27.23;18.17;;;4.30;72.50;;;;;;5009832;28;25145;-74
2022/03/01 03:20:30;;;;;;;30.67;18.15;;;4.30;72.70;;;;;;5009762;28;25124;-73
2022/03/01 03:22:56;;;;;;;25.52;16.55;;;4.30;72.70;;;;;;5010273;28;25100;-72
2022/03/01 03:25:22;;;;;;;27.02;16.27;;;4.30;72.80;;;;;;5010240;28;25064;-74
2022/03/01 03:27:47;;;;;;;29.52;17.38;;;4.30;72.90;;;;;;5010803;28;25081;-73
2022/03/01 03:30:13;;;;;;;26.77;17.50;;;4.30;73.40;;;;;;5008999;28;25055;-72
2022/03/01 03:32:38;;;;;;;29.75;16.75;;;4.30;73.50;;;;;;5008012;28;25144;-73
2022/03/01 03:35:05;;;;;;;25.90;16.58;;;4.30;73.50;;;;;;5009126;28;25086;-73
2022/03/01 03:37:31;;;;;;;24.77;16.10;;;4.30;73.50;;;;;;5009090;28;25054;-73
2022/03/01 03:39:57;;;;;;;23.83;16.33;;;4.30;73.70;;;;;;5010789;28;25154;-71
2022/03/01 03:42:22;;;;;;;25.83;16.77;;;4.30;73.90;;;;;;5011214;28;25064;-73
2022/03/01 03:44:48;;;;;;;24.33;17.17;;;4.40;73.40;;;;;;5009558;28;25096;-74
2022/03/01 03:47:14;;;;;;;25.83;16.13;;;4.40;73.40;;;;;;4991426;28;25078;-73
2022/03/01 03:49:40;;;;;;;27.83;16.85;;;4.40;73.30;;;;;;5008699;28;25071;-73
2022/03/01 03:52:06;;;;;;;25.77;16.65;;;4.50;72.70;;;;;;5013506;28;25073;-73
2022/03/01 03:54:32;;;;;;;29.50;16.95;;;4.50;73.30;;;;;;5013094;28;25083;-72
2022/03/01 03:56:58;;;;;;;27.38;16.85;;;4.50;72.80;;;;;;5012874;28;25054;-72
2022/03/01 03:59:24;;;;;;;25.90;16.85;;;4.60;72.50;;;;;;5012610;28;25069;-72
2022/03/01 04:01:50;;;;;;;26.73;16.70;;;4.60;72.60;;;;;;5012500;28;25138;-74
2022/03/01 04:04:16;;;;;;;26.38;17.17;;;4.60;72.30;;;;;;4995627;28;25140;-71
2022/03/01 04:06:42;;;;;;;25.95;16.40;;;4.60;72.40;;;;;;5012940;28;25149;-72
2022/03/01 04:09:08;;;;;;;23.63;17.15;;;4.70;72.10;;;;;;5013698;28;25078;-72
2022/03/01 04:11:33;;;;;;;25.02;16.13;;;4.70;71.60;;;;;;5033223;28;25103;-75
2022/03/01 04:14:00;;;;;;;26.63;16.67;;;4.60;71.50;;;;;;5023339;28;25059;-76
2022/03/01 04:16:27;;;;;;;30.40;17.02;;;4.60;72.00;;;;;;5033654;28;25073;-74
2022/03/01 04:18:53;;;;;;;27.60;16.65;;;4.40;71.10;;;;;;5022025;28;25087;-75
2022/03/01 04:21:19;;;;;;;27.98;16.20;;;4.40;71.30;;;;;;5031836;28;25076;-74
2022/03/01 04:23:46;;;;;;;28.30;16.05;;;4.40;71.00;;;;;;5026489;28;25087;-74
2022/03/01 04:26:12;;;;;;;22.73;14.93;;;4.40;71.10;;;;;;5019659;28;25100;-73
2022/03/01 04:28:38;;;;;;;28.05;16.27;;;4.50;70.60;;;;;;4994613;28;25079;-71
2022/03/01 04:31:03;;;;;;;24.95;16.40;;;4.50;70.50;;;;;;5004232;28;25072;-73
2022/03/01 04:33:29;;;;;;;27.48;16.17;;;4.50;70.50;;;;;;4994426;28;25115;-73
2022/03/01 04:35:54;;;;;;;25.75;15.18;;;4.60;69.60;;;;;;4996004;28;25154;-74
2022/03/01 04:38:20;;;;;;;27.15;15.98;;;4.60;69.80;;;;;;5012108;28;25053;-74
2022/03/01 04:40:46;;;;;;;23.55;15.13;;;4.60;69.90;;;;;;4995036;28;25063;-73
2022/03/01 04:43:12;;;;;;;22.73;15.35;;;4.60;70.40;;;;;;5011169;28;25186;-72
2022/03/01 04:45:39;;;;;;;22.77;15.38;;;4.70;70.40;;;;;;5012135;28;25060;-73
2022/03/01 04:48:04;;;;;;;27.45;15.50;;;4.60;70.50;;;;;;5012291;28;25078;-72
2022/03/01 04:50:30;;;;;;;28.00;15.80;;;4.50;70.80;;;;;;5011016;28;25057;-73
2022/03/01 04:52:55;;;;;;;29.70;16.25;;;4.50;71.00;;;;;;5010695;28;25099;-73
2022/03/01 04:55:21;;;;;;;24.52;15.20;;;4.60;70.90;;;;;;5004865;28;25134;-73
2022/03/01 04:57:47;;;;;;;26.67;16.30;;;4.60;70.60;;;;;;4992880;28;25052;-73
2022/03/01 05:00:13;;;;;;;25.15;15.48;;;4.60;70.60;;;;;;5013044;28;25065;-72
2022/03/01 05:02:40;;;;;;;22.60;15.73;;;4.70;70.90;;;;;;5009975;28;25093;-73
2022/03/01 05:05:16;;;;;;;25.75;15.43;;;4.70;70.30;;;;;;5012342;28;25108;-74
2022/03/01 05:07:44;;;;;;;24.05;16.05;;;4.60;70.40;;;;;;5004276;28;25148;-72
2022/03/01 05:10:11;;;;;;;23.00;15.18;;;4.60;71.00;;;;;;5011058;28;25072;-73
2022/03/01 05:12:48;;;;;;;25.00;15.00;;;4.60;71.10;;;;;;5011325;28;25107;-70
2022/03/01 05:15:15;;;;;;;29.30;16.48;;;4.80;70.40;;;;;;5010718;28;25048;-72
2022/03/01 05:17:41;;;;;;;25.92;14.35;;;4.80;70.10;;;;;;5007096;28;25084;-72
2022/03/01 05:20:08;;;;;;;24.60;16.05;;;4.80;70.40;;;;;;4992327;28;25168;-72
2022/03/01 05:22:34;;;;;;;24.00;15.55;;;4.90;70.10;;;;;;5011477;28;25093;-73
2022/03/01 05:25:01;;;;;;;28.83;16.00;;;4.80;70.10;;;;;;5010872;28;25109;-74
2022/03/01 05:27:28;;;;;;;27.48;14.90;;;4.80;70.20;;;;;;5007608;28;25077;-72
2022/03/01 05:29:54;;;;;;;23.08;14.57;;;4.70;70.20;;;;;;5011133;28;25069;-73
2022/03/01 05:32:20;;;;;;;28.08;16.13;;;4.80;69.60;;;;;;5003962;28;25143;-72
2022/03/01 05:34:46;;;;;;;24.55;15.25;;;4.70;69.80;;;;;;5004939;28;25097;-72
2022/03/01 05:37:11;;;;;;;26.27;15.48;;;4.80;69.40;;;;;;5002718;28;25103;-73
2022/03/01 05:39:37;;;;;;;23.75;15.52;;;4.70;69.10;;;;;;5001872;28;25135;-73
2022/03/01 05:42:03;;;;;;;27.77;16.20;;;4.70;69.30;;;;;;5000764;28;25065;-73
2022/03/01 05:44:28;;;;;;;25.10;15.38;;;4.70;70.00;;;;;;4999207;28;25066;-75
2022/03/01 05:46:54;;;;;;;24.17;15.40;;;4.70;69.70;;;;;;5001890;28;25084;-71
2022/03/01 05:49:19;;;;;;;28.02;15.75;;;4.80;69.40;;;;;;4992052;28;25067;-75
2022/03/01 05:51:45;;;;;;;26.30;14.88;;;4.80;69.50;;;;;;5009907;28;25082;-73
2022/03/01 05:54:10;;;;;;;24.45;15.38;;;4.70;70.00;;;;;;5009445;28;25082;-73
2022/03/01 05:56:36;;;;;;;22.05;15.18;;;4.80;70.10;;;;;;5010286;28;25069;-73
2022/03/01 05:59:02;;;;;;;28.13;15.68;;;4.70;70.00;;;;;;5007684;28;25077;-72
2022/03/01 06:01:27;;;;;;;23.55;16.08;;;4.70;70.80;;;;;;5010558;28;25065;-73
2022/03/01 06:03:53;;;;;;;24.25;14.90;;;4.70;70.60;;;;;;4992184;28;25105;-73
2022/03/01 06:06:19;;;;;;;20.95;14.55;;;4.60;70.70;;;;;;5011567;28;25058;-74
2022/03/01 06:08:45;;;;;;;24.50;14.57;;;4.60;71.40;;;;;;4992287;28;25055;-73
2022/03/01 06:11:10;;;;;;;25.45;14.63;;;4.60;71.20;;;;;;5010321;28;25082;-72
2022/03/01 06:13:37;;;;;;;24.63;15.07;;;4.70;71.20;;;;;;5009046;28;25078;-73
2022/03/01 06:16:04;;;;;;;22.40;14.48;;;4.70;70.80;;;;;;5010234;28;25075;-72
2022/03/01 06:18:30;;;;;;;24.05;15.40;;;4.70;70.30;;;;;;5014064;28;25069;-73
2022/03/01 06:20:58;;;;;;;25.10;15.18;;;4.70;70.50;;;;;;5025959;28;25055;-75
2022/03/01 06:23:24;;;;;;;28.48;14.75;;;4.60;70.40;;;;;;5026284;28;25071;-76
2022/03/01 06:25:50;;;;;;;20.38;13.57;;;4.60;70.40;;;;;;5010331;28;25103;-73
2022/03/01 06:28:16;;;;;;;23.15;14.73;;;4.60;70.30;;;;;;5010258;28;25063;-73
2022/03/01 06:30:41;;;;;;;18.13;13.43;;;4.70;70.20;;;;;;5005736;28;25080;-73
2022/03/01 06:33:07;;;;;;;23.35;15.10;;;4.70;69.70;;;;;;5005341;28;25096;-71
2022/03/01 06:35:32;;;;;;;24.50;14.43;;;4.70;69.10;;;;;;4999767;28;25069;-70
2022/03/01 06:37:58;;;;;;;19.80;13.10;;;4.70;69.20;;;;;;4988635;28;25060;-72
2022/03/01 06:40:24;;;;;;;19.27;13.63;;;4.70;69.10;;;;;;5008991;28;25092;-72
2022/03/01 06:42:50;;;;;;;22.95;14.27;;;4.70;68.80;;;;;;5001928;28;25133;-71
2022/03/01 06:45:15;;;;;;;20.45;13.27;;;4.70;68.70;;;;;;4995943;28;25074;-72
2022/03/01 06:47:41;;;;;;;18.33;12.35;;;4.70;69.00;;;;;;4997825;28;25057;-71
2022/03/01 06:50:08;;;;;;;22.33;14.68;;;4.70;68.50;;;;;;5004677;28;25100;-70
2022/03/01 06:52:34;;;;;;;25.00;13.95;;;4.80;68.80;;;;;;5008509;28;25120;-71
2022/03/01 06:55:01;;;;;;;22.77;13.38;;;4.90;68.30;;;;;;4996658;28;25136;-72
2022/03/01 06:57:27;;;;;;;25.65;14.65;;;4.90;68.60;;;;;;4994940;28;25129;-71
2022/03/01 06:59:53;;;;;;;20.58;14.43;;;4.90;69.00;;;;;;5002593;28;25070;-72
2022/03/01 07:02:19;;;;;;;22.02;13.25;;;5.00;68.10;;;;;;4996499;28;25066;-71
2022/03/01 07:04:45;;;;;;;19.40;13.73;;;5.00;68.60;;;;;;5003960;28;25067;-72
2022/03/01 07:07:11;;;;;;;24.88;13.82;;;5.00;68.20;;;;;;4974987;28;25149;-72
2022/03/01 07:09:36;;;;;;;24.38;15.07;;;5.00;68.30;;;;;;5005074;28;25085;-73
2022/03/01 07:12:03;;;;;;;18.40;12.98;;;4.90;68.30;;;;;;4996973;28;25053;-73
2022/03/01 07:14:28;;;;;;;20.85;13.70;;;4.90;68.10;;;;;;4988243;28;25169;-75
2022/03/01 07:16:54;;;;;;;21.55;12.95;;;4.90;68.40;;;;;;5001785;28;25089;-71
2022/03/01 07:19:20;;;;;;;21.83;13.45;;;5.00;68.20;;;;;;5009393;28;25101;-71
2022/03/01 07:21:45;;;;;;;22.73;12.77;;;5.10;67.60;;;;;;5008411;28;25061;-71
2022/03/01 07:24:11;;;;;;;19.30;13.13;;;5.00;67.30;;;;;;5003276;28;25081;-71
2022/03/01 07:26:37;;;;;;;27.45;14.20;;;5.00;67.80;;;;;;5011647;28;25085;-73
2022/03/01 07:29:04;;;;;;;23.08;13.93;;;5.00;68.10;;;;;;5004646;28;25065;-73
2022/03/01 07:31:29;;;;;;;16.63;12.38;;;5.00;67.70;;;;;;5006793;28;25093;-72
2022/03/01 07:33:55;;;;;;;19.63;13.32;;;5.10;67.70;;;;;;5001023;28;25098;-71
2022/03/01 07:36:21;;;;;;;18.27;12.57;;;5.00;67.70;;;;;;5004384;28;25087;-73
2022/03/01 07:38:46;;;;;;;21.95;13.45;;;5.00;67.50;;;;;;5002446;28;25141;-72
2022/03/01 07:41:12;;;;;;;20.33;13.43;;;4.90;67.20;;;;;;5011636;28;25089;-74
2022/03/01 07:43:39;;;;;;;22.10;12.52;;;5.00;67.80;;;;;;5003212;28;25127;-71
2022/03/01 07:46:07;;;;;;;20.40;13.65;;;5.00;67.40;;;;;;5012362;28;25058;-72
2022/03/01 07:48:32;;;;;;;23.40;12.90;;;5.00;66.50;;;;;;5020412;28;25067;-71
2022/03/01 07:50:58;;;;;;;18.25;12.00;;;5.00;67.00;;;;;;5016627;28;25081;-72
2022/03/01 07:53:24;;;;;;;19.95;12.60;;;5.00;65.90;;;;;;5014238;28;25066;-74
2022/03/01 07:55:49;;;;;;;20.00;12.95;;;4.90;66.90;;;;;;5013109;28;25075;-74
2022/03/01 07:58:15;;;;;;;24.88;13.07;;;5.10;67.60;;;;;;5012462;28;25138;-72
2022/03/01 08:00:40;;;;;;;22.67;13.13;;;5.20;67.30;;;;;;5013005;28;25060;-71
2022/03/01 08:03:06;;;;;;;19.65;13.50;;;5.20;67.20;;;;;;5013478;28;25038;-73
2022/03/01 08:05:31;;;;;;;21.02;12.60;;;5.30;66.00;;;;;;5012983;28;25077;-75
2022/03/01 08:07:58;;;;;;;35.17;13.52;;;5.30;66.80;;;;;;5012370;28;25077;-72
2022/03/01 08:10:23;;;;;;;22.45;13.10;;;5.40;66.90;;;;;;5012827;28;25094;-72
2022/03/01 08:12:49;;;;;;;19.55;13.82;;;5.50;66.60;;;;;;5015298;28;25096;-72
2022/03/01 08:15:14;;;;;;;20.05;13.23;;;5.50;66.10;;;;;;5012920;28;25071;-72
2022/03/01 08:17:48;;;;;;;19.27;12.60;;;5.50;66.10;;;;;;4995179;28;25064;-72
2022/03/01 08:20:14;;;;;;;21.77;14.45;;;5.50;66.70;;;;;;5013110;28;25076;-73
2022/03/01 08:22:40;;;;;;;18.95;12.63;;;5.60;65.90;;;;;;5011307;28;25061;-72
2022/03/01 08:25:06;;;;;;;24.05;13.60;;;5.60;65.60;;;;;;4994468;28;25115;-73
2022/03/01 08:27:32;;;;;;;23.27;13.13;;;5.60;65.30;;;;;;5009037;28;25068;-71
2022/03/01 08:29:57;;;;;;;22.63;13.73;;;5.60;64.50;;;;;;5003119;28;25082;-73
2022/03/01 08:32:23;;;;;;;25.25;13.40;;;5.40;64.90;;;;;;4994096;28;25061;-74
2022/03/01 08:34:49;;;;;;;22.40;13.13;;;5.50;65.60;;;;;;5012436;28;25061;-72
2022/03/01 08:37:14;;;;;;;22.58;13.70;;;5.50;64.80;;;;;;5010910;28;25131;-71
2022/03/01 08:39:40;;;;;;;18.73;13.05;;;5.50;65.30;;;;;;5012110;28;25065;-71
2022/03/01 08:42:05;;;;;;;27.08;14.82;;;5.70;65.90;;;;;;5012845;28;25120;-74
2022/03/01 08:44:31;;;;;;;23.08;14.18;;;5.60;66.40;;;;;;5013360;28;25069;-72
2022/03/01 08:46:57;;;;;;;27.17;15.00;;;5.60;65.60;;;;;;5012874;28;25149;-71
2022/03/01 08:49:22;;;;;;;21.38;13.88;;;5.70;65.80;;;;;;5011731;28;25065;-72
2022/03/01 08:51:48;;;;;;;24.80;14.23;;;5.60;64.70;;;;;;5010937;28;25072;-71
2022/03/01 08:54:13;;;;;;;21.92;14.45;;;5.60;65.80;;;;;;4993939;28;25064;-71
2022/03/01 08:56:39;;;;;;;23.60;14.80;;;5.70;65.80;;;;;;5010672;28;25133;-71
2022/03/01 08:59:05;;;;;;;19.95;13.25;;;5.80;66.30;;;;;;5011101;28;25086;-72
2022/03/01 09:01:31;;;;;;;20.25;13.73;;;5.90;65.70;;;;;;5011497;28;25058;-73
2022/03/01 09:03:59;;;;;;;18.70;13.88;;;6.00;64.70;;;;;;5015160;28;25152;-71
2022/03/01 09:06:25;;;;;;;26.23;14.40;;;5.80;64.40;;;;;;5036250;28;25065;-74
2022/03/01 09:08:51;;;;;;;23.73;13.82;;;5.80;64.40;;;;;;5038946;28;25073;-74
2022/03/01 09:11:18;;;;;;;23.88;13.95;;;5.70;64.50;;;;;;5020051;28;25112;-73
2022/03/01 09:13:44;;;;;;;22.10;13.70;;;5.80;64.50;;;;;;4996176;28;25084;-71
2022/03/01 09:16:10;;;;;;;22.27;14.85;;;6.00;63.50;;;;;;5012091;28;25092;-72
2022/03/01 09:18:36;;;;;;;22.08;13.32;;;6.10;63.90;;;;;;5008232;28;25058;-72
2022/03/01 09:21:04;;;;;;;21.08;13.80;;;6.20;62.80;;;;;;5010054;28;25070;-73
2022/03/01 09:23:30;;;;;;;19.42;13.43;;;6.20;62.00;;;;;;5004161;28;25068;-72
2022/03/01 09:25:55;;;;;;;25.88;14.38;;;6.10;61.80;;;;;;5004895;28;25159;-73
2022/03/01 09:28:21;;;;;;;27.35;14.82;;;6.10;61.40;;;;;;5005836;28;25090;-75
2022/03/01 09:30:47;;;;;;;22.00;14.13;;;6.00;60.80;;;;;;4999240;28;25072;-75
2022/03/01 09:33:12;;;;;;;22.25;14.02;;;5.90;62.00;;;;;;5000903;28;25070;-74
2022/03/01 09:35:38;;;;;;;22.27;13.30;;;5.90;62.50;;;;;;4997702;28;25065;-74
2022/03/01 09:38:04;;;;;;;23.02;13.48;;;6.00;63.50;;;;;;4999500;28;25163;-74
2022/03/01 09:40:30;;;;;;;27.77;14.88;;;6.10;63.60;;;;;;4991905;28;25098;-73
2022/03/01 09:42:55;;;;;;;23.75;13.57;;;6.20;62.60;;;;;;5006410;28;25064;-73
2022/03/01 09:45:21;;;;;;;25.13;13.65;;;6.30;62.80;;;;;;4998234;28;25156;-73
2022/03/01 09:47:47;;;;;;;20.23;13.60;;;6.40;62.20;;;;;;4999109;28;25154;-75
2022/03/01 09:50:13;;;;;;;21.15;13.00;;;6.40;61.00;;;;;;4987786;28;25100;-73
2022/03/01 09:52:40;;;;;;;23.45;15.13;;;6.40;60.80;;;;;;5006500;28;25061;-73
2022/03/01 09:55:06;;;;;;;22.98;13.85;;;6.20;61.10;;;;;;5003104;28;25055;-72
2022/03/01 09:57:32;;;;;;;19.48;13.45;;;6.30;59.90;;;;;;5000097;28;25056;-73
2022/03/01 09:59:57;;;;;;;26.77;14.90;;;6.30;60.70;;;;;;4994111;28;25074;-75
2022/03/01 10:02:38;;;;;;;20.75;13.75;;;6.20;61.30;;;;;;5008791;28;25076;-72
2022/03/01 10:05:04;;;;;;;22.08;12.85;;;6.40;61.60;;;;;;5010974;28;25135;-72
2022/03/01 10:07:31;;;;;;;25.85;15.40;;;6.30;61.20;;;;;;5010514;28;25074;-75
2022/03/01 10:10:13;;;;;;;26.85;14.32;;;6.30;60.00;;;;;;5007498;28;25068;-71
2022/03/01 10:12:40;;;;;;;22.33;14.00;;;6.30;61.40;;;;;;5009966;28;25068;-71
2022/03/01 10:15:10;;;;;;;24.10;14.13;;;6.20;60.00;;;;;;5011007;28;25085;-72
2022/03/01 10:17:38;;;;;;;24.02;14.38;;;6.20;60.20;;;;;;4995566;28;25057;-76
2022/03/01 10:20:16;;;;;;;23.20;15.00;;;6.20;60.50;;;;;;5010945;28;25096;-74
2022/03/01 10:22:51;;;;;;;24.65;14.80;;;6.30;60.40;;;;;;5009456;28;25069;-73
2022/03/01 10:25:23;;;;;;;22.35;13.95;;;6.40;62.20;;;;;;5007855;28;25100;-74
2022/03/01 10:27:52;;;;;;;23.48;13.95;;;6.40;62.00;;;;;;5007663;28;25081;-72
2022/03/01 10:30:23;;;;;;;24.52;16.17;;;6.50;63.70;;;;;;5004367;28;25069;-74
2022/03/01 10:32:49;;;;;;;30.40;16.73;;;6.60;64.10;;;;;;5010866;28;25094;-74
2022/03/01 10:35:15;;;;;;;27.08;15.80;;;6.70;65.40;;;;;;5007654;28;25074;-71
2022/03/01 10:37:41;;;;;;;24.92;16.20;;;6.70;64.10;;;;;;5006850;28;25148;-73
2022/03/01 10:40:10;;;;;;;24.17;15.68;;;6.50;64.80;;;;;;5005342;28;25104;-71
2022/03/01 10:42:36;;;;;;;26.15;16.85;;;6.50;67.10;;;;;;5011869;28;25073;-72
2022/03/01 10:45:03;;;;;;;25.40;15.05;;;6.70;69.50;;;;;;5006286;28;25091;-72
2022/03/01 10:47:28;;;;;;;28.05;16.58;;;6.80;69.40;;;;;;5005465;28;25076;-72
2022/03/01 10:50:02;;;;;;;24.08;16.52;;;6.80;67.70;;;;;;5005396;28;25059;-73
2022/03/01 10:52:32;;;;;;;27.40;16.88;;;6.90;69.80;;;;;;5006415;28;25080;-73
2022/03/01 10:54:58;;;;;;;27.02;16.98;;;6.90;71.10;;;;;;4981002;28;25068;-75
2022/03/01 10:57:24;;;;;;;25.00;17.10;;;6.80;72.60;;;;;;5002832;28;25074;-74
2022/03/01 10:59:50;;;;;;;26.30;17.38;;;6.90;73.50;;;;;;5006355;28;25093;-72
2022/03/01 11:02:17;;;;;;;27.77;18.40;;;6.80;73.70;;;;;;5006989;28;25072;-73
2022/03/01 11:04:43;;;;;;;27.65;16.95;;;6.80;73.50;;;;;;5006776;28;25146;-74
2022/03/01 11:07:11;;;;;;;26.00;17.20;;;6.60;72.80;;;;;;5002646;28;25148;-73
2022/03/01 11:09:37;;;;;;;28.50;17.83;;;6.50;73.50;;;;;;4991918;28;25105;-73
2022/03/01 11:12:06;;;;;;;27.95;18.40;;;6.20;74.40;;;;;;5005356;28;25082;-72
2022/03/01 11:14:58;;;;;;;29.42;19.42;;;6.10;76.50;;;;;;5004498;28;25071;-75
2022/03/01 11:17:35;;;;;;;24.75;17.15;;;6.10;77.80;;;;;;5004422;28;25081;-73
2022/03/01 11:20:06;;;;;;;31.80;20.05;;;6.10;80.10;;;;;;4999962;28;25098;-73
2022/03/01 11:22:46;;;;;;;30.60;20.13;;;6.10;81.10;;;;;;5007694;28;25062;-74
2022/03/01 11:25:24;;;;;;;26.95;18.10;;;6.10;82.70;;;;;;5003069;28;25118;-75
2022/03/01 11:27:52;;;;;;;31.58;19.77;;;6.20;85.30;;;;;;5006357;28;25056;-74
2022/03/01 11:30:31;;;;;;;31.77;19.35;;;6.30;86.00;;;;;;5002810;28;25070;-75
2022/03/01 11:32:57;;;;;;;29.40;19.75;;;6.20;85.30;;;;;;5003616;28;25102;-73
2022/03/01 11:35:25;;;;;;;30.75;20.33;;;6.20;86.60;;;;;;5009404;28;25071;-75
2022/03/01 11:38:08;;;;;;;32.92;21.48;;;6.40;87.10;;;;;;5010363;28;25078;-73
2022/03/01 11:40:43;;;;;;;33.65;20.67;;;6.40;87.70;;;;;;5004542;28;25056;-71
2022/03/01 11:43:13;;;;;;;31.45;20.50;;;6.40;88.40;;;;;;5012197;28;25109;-71
2022/03/01 11:45:45;;;;;;;30.88;19.50;;;6.40;89.20;;;;;;5004612;28;25074;-72
2022/03/01 11:48:19;;;;;;;29.05;19.10;;;6.40;88.50;;;;;;5005000;28;25157;-73
2022/03/01 11:51:10;;;;;;;26.45;18.33;;;6.40;86.90;;;;;;5028928;28;25066;-77
2022/03/01 11:53:40;;;;;;;30.80;20.27;;;6.50;86.60;;;;;;5035472;28;25063;-78
2022/03/01 11:56:07;;;;;;;32.05;20.27;;;6.50;86.00;;;;;;5035177;28;25068;-76
2022/03/01 11:58:34;;;;;;;32.90;20.70;;;6.80;87.00;;;;;;5021218;28;25073;-73
2022/03/01 12:01:04;;;;;;;26.70;17.90;;;6.90;85.80;;;;;;4995386;28;25060;-71
2022/03/01 12:03:30;;;;;;;29.05;18.75;;;6.90;83.40;;;;;;4992673;28;25075;-69
2022/03/01 12:05:55;;;;;;;29.60;19.15;;;6.90;82.70;;;;;;5007428;28;25136;-75
2022/03/01 12:08:21;;;;;;;28.27;19.30;;;7.10;84.30;;;;;;5005535;28;25110;-72
2022/03/01 12:10:57;;;;;;;29.38;19.83;;;7.20;84.00;;;;;;5007939;28;25071;-74
2022/03/01 12:13:40;;;;;;;30.33;18.90;;;7.30;84.00;;;;;;5004096;28;25066;-73
2022/03/01 12:16:07;;;;;;;26.35;19.13;;;7.40;81.70;;;;;;5017484;28;25152;-75
2022/03/01 12:18:38;;;;;;;34.38;20.42;;;7.40;81.90;;;;;;5030611;28;25067;-75
2022/03/01 12:21:07;;;;;;;26.38;19.23;;;7.40;80.20;;;;;;5021162;28;25096;-74
2022/03/01 12:23:34;;;;;;;28.48;19.48;;;7.40;80.20;;;;;;5025243;28;25089;-74
2022/03/01 12:26:05;;;;;;;30.48;19.88;;;7.40;80.40;;;;;;5021696;28;25142;-73
2022/03/01 12:28:41;;;;;;;34.60;19.58;;;7.40;78.50;;;;;;5022506;28;25060;-71
2022/03/01 12:31:13;;;;;;;33.55;19.75;;;7.30;76.90;;;;;;5021331;28;25048;-72
2022/03/01 12:33:54;;;;;;;36.42;20.30;;;7.30;78.10;;;;;;5017589;28;25175;-75